Time;durP1;ratioP1;P1;durP2;ratioP2;P2;SDS_P1;SDS_P2;PMS_P1;PMS_P2;Temp;Humidity;BMP_temperature;BMP_pressure;BME280_temperature;BME280_humidity;BME280_pressure;Samples;Min_cycle;Max_cycle;Signal;HPM_P1;HPM_P2
2023/01/18 00:01:02;;;;;;;15.00;7.63;;;;;;;-0.78;100.00;99022.31;2619659;36;20038;-59
2023/01/18 00:48:34;;;;;;;16.20;7.28;;;;;;;-0.78;100.00;99040.81;2142121;36;20037;-58
2023/01/18 00:51:03;;;;;;;13.52;7.72;;;;;;;-0.81;100.00;99038.38;2618671;31;20053;-58
2023/01/18 00:53:31;;;;;;;13.73;7.30;;;;;;;-0.73;100.00;99038.66;2619653;36;20041;-59
2023/01/18 00:56:00;;;;;;;13.07;8.05;;;;;;;-0.95;100.00;99041.97;2619805;36;20442;-58
2023/01/18 00:58:29;;;;;;;13.17;8.17;;;;;;;-0.69;100.00;99043.72;2618884;36;20053;-59
2023/01/18 01:00:57;;;;;;;12.77;7.18;;;;;;;-0.83;100.00;99037.63;2619122;36;20033;-59
2023/01/18 01:03:26;;;;;;;17.40;8.63;;;;;;;-0.76;100.00;99044.16;2617951;36;20041;-60
2023/01/18 01:08:39;;;;;;;13.20;6.93;;;;;;;-0.90;100.00;99039.00;2617402;36;20022;-59
2023/01/18 01:11:09;;;;;;;16.13;8.52;;;;;;;-0.80;100.00;99047.97;2616239;36;20053;-59
2023/01/18 01:27:05;;;;;;;12.75;8.38;;;;;;;-0.98;100.00;99057.22;2620266;36;20038;-59
2023/01/18 01:29:34;;;;;;;15.82;8.20;;;;;;;-0.89;100.00;99059.19;2619819;36;20033;-59
2023/01/18 01:32:02;;;;;;;17.42;7.95;;;;;;;-0.87;100.00;99057.28;2620140;36;20030;-59
2023/01/18 01:34:31;;;;;;;12.93;8.30;;;;;;;-0.84;100.00;99057.09;2619272;36;20038;-59
2023/01/18 01:37:02;;;;;;;15.27;7.63;;;;;;;-0.89;100.00;99064.47;2620398;36;20118;-59
2023/01/18 01:39:30;;;;;;;14.25;7.45;;;;;;;-0.81;100.00;99058.66;2619975;31;20057;-59
2023/01/18 01:41:59;;;;;;;14.35;7.47;;;;;;;-0.79;100.00;99064.69;2620197;31;20039;-59
2023/01/18 01:44:50;;;;;;;14.30;8.37;;;;;;;-0.97;100.00;99056.25;2619539;36;20038;-60
2023/01/18 01:47:40;;;;;;;14.88;7.82;;;;;;;-0.94;100.00;99062.16;2620191;36;20065;-60
2023/01/18 01:50:11;;;;;;;;;;;;;;;-0.94;100.00;99061.34;2619425;36;20042;-60
2023/01/18 01:52:46;;;;;;;14.82;7.95;;;;;;;-1.06;100.00;99063.00;2617007;36;20459;-60
2023/01/18 01:55:20;;;;;;;17.40;8.10;;;;;;;-1.08;100.00;99068.38;2616294;36;20038;-60
2023/01/18 01:57:52;;;;;;;15.20;8.25;;;;;;;-1.02;100.00;99068.94;2616287;36;20563;-59
2023/01/18 02:00:23;;;;;;;17.33;8.52;;;;;;;-1.06;100.00;99063.00;2614955;31;20027;-59
2023/01/18 02:02:55;;;;;;;17.23;8.73;;;;;;;-1.12;100.00;99064.31;2616296;36;20042;-59
2023/01/18 02:05:24;;;;;;;18.63;8.32;;;;;;;-1.09;100.00;99072.00;2614610;36;20042;-59
2023/01/18 02:07:55;;;;;;;13.05;8.07;;;;;;;-1.00;100.00;99072.31;2615874;31;20038;-60
2023/01/18 02:10:23;;;;;;;14.32;8.18;;;;;;;-0.81;100.00;99078.00;2615677;36;20038;-59
2023/01/18 02:12:55;;;;;;;12.90;6.70;;;;;;;-0.98;100.00;99075.69;2615356;36;20042;-59
2023/01/18 02:15:27;;;;;;;13.30;7.22;;;;;;;-1.08;100.00;99076.31;2615162;36;20038;-59
2023/01/18 02:18:11;;;;;;;13.63;7.18;;;;;;;-1.11;100.00;99080.97;2614789;36;20034;-59
2023/01/18 02:21:02;;;;;;;13.95;7.53;;;;;;;-1.13;100.00;99088.16;2614059;36;20069;-59
2023/01/18 02:23:56;;;;;;;10.63;7.70;;;;;;;-1.02;100.00;99085.59;2614919;36;20030;-59
2023/01/18 02:26:52;;;;;;;16.80;8.70;;;;;;;-1.13;100.00;99093.44;2614531;36;20030;-59
2023/01/18 02:29:45;;;;;;;16.42;8.73;;;;;;;-1.11;100.00;99095.00;2614299;36;20034;-59
2023/01/18 02:32:22;;;;;;;13.88;8.15;;;;;;;-1.23;100.00;99095.84;2615535;31;20037;-59
2023/01/18 02:34:55;;;;;;;13.70;7.75;;;;;;;-1.21;100.00;99101.03;2615448;36;20045;-60
2023/01/18 02:37:34;;;;;;;16.75;8.48;;;;;;;-1.31;100.00;99095.53;2615032;36;20948;-59
2023/01/18 02:40:13;;;;;;;12.55;7.55;;;;;;;-1.26;100.00;99096.06;2615984;31;20065;-59
2023/01/18 02:48:15;;;;;;;15.65;7.97;;;;;;;-1.19;100.00;99110.53;2614380;36;20035;-58
2023/01/18 02:50:44;;;;;;;14.75;8.43;;;;;;;-1.21;100.00;99096.59;2614808;36;20034;-58
2023/01/18 02:53:14;;;;;;;16.15;7.90;;;;;;;-1.21;100.00;99101.03;2615996;36;20035;-58
2023/01/18 02:55:47;;;;;;;15.63;8.00;;;;;;;-1.16;100.00;99110.34;2615950;36;20109;-60
2023/01/18 02:58:22;;;;;;;14.02;7.15;;;;;;;-1.20;100.00;99106.22;2614763;36;20034;-60
2023/01/18 03:00:57;;;;;;;14.48;8.10;;;;;;;-1.23;100.00;99103.78;2615432;36;20039;-58
2023/01/18 03:03:26;;;;;;;12.02;8.10;;;;;;;-1.25;100.00;99105.69;2615254;36;20068;-59
2023/01/18 03:06:00;;;;;;;15.70;8.50;;;;;;;-1.18;100.00;99106.94;2614468;36;20034;-58
2023/01/18 03:08:35;;;;;;;14.73;8.27;;;;;;;-1.26;100.00;99107.47;2614696;36;20068;-59
2023/01/18 03:11:06;;;;;;;17.23;7.80;;;;;;;-1.14;100.00;99107.59;2615339;36;20027;-59
2023/01/18 03:13:58;;;;;;;14.98;7.53;;;;;;;-1.19;100.00;99105.25;2616105;36;20041;-59
2023/01/18 03:16:41;;;;;;;16.15;7.90;;;;;;;-1.18;100.00;99114.03;2615541;36;20039;-59
2023/01/18 03:21:58;;;;;;;12.18;7.70;;;;;;;-1.29;100.00;99104.19;2614916;36;20034;-59
2023/01/18 03:24:27;;;;;;;13.05;7.80;;;;;;;-1.28;100.00;99109.38;2615246;36;20042;-59
2023/01/18 03:35:08;;;;;;;16.13;7.47;;;;;;;-1.36;100.00;99113.47;2613745;36;20034;-60
2023/01/18 03:37:39;;;;;;;14.80;8.50;;;;;;;-1.37;100.00;99123.19;2613639;36;20050;-59
2023/01/18 03:40:11;;;;;;;14.80;8.38;;;;;;;-1.43;100.00;99124.44;2613668;31;20041;-59
2023/01/18 03:42:47;;;;;;;15.68;9.15;;;;;;;-1.41;100.00;99122.53;2615542;36;20029;-58
2023/01/18 03:45:24;;;;;;;14.38;9.32;;;;;;;-1.35;100.00;99123.09;2615446;31;20038;-59
2023/01/18 03:47:55;;;;;;;14.52;9.13;;;;;;;-1.47;100.00;99127.41;2615378;36;20042;-59
2023/01/18 03:50:29;;;;;;;16.80;9.05;;;;;;;-1.41;100.00;99121.72;2614429;36;20042;-59
2023/01/18 03:53:05;;;;;;;13.55;9.50;;;;;;;-1.39;100.00;99124.25;2614925;36;20030;-60
2023/01/18 03:55:40;;;;;;;15.23;8.95;;;;;;;-1.32;100.00;99120.25;2615325;36;20030;-59
2023/01/18 03:58:11;;;;;;;15.73;9.13;;;;;;;-1.33;100.00;99137.03;2614638;36;20061;-60
2023/01/18 04:00:41;;;;;;;15.30;9.43;;;;;;;-1.34;100.00;99130.03;2616100;31;20042;-59
2023/01/18 04:03:12;;;;;;;15.13;9.45;;;;;;;-1.48;100.00;99137.09;2615920;36;20038;-59
2023/01/18 04:05:40;;;;;;;14.13;8.65;;;;;;;-1.45;100.00;99136.88;2616280;36;20435;-59
2023/01/18 04:08:09;;;;;;;15.97;9.10;;;;;;;-1.49;100.00;99135.38;2615342;36;20041;-58
2023/01/18 04:10:37;;;;;;;15.00;8.43;;;;;;;-1.49;100.00;99140.66;2615554;36;20329;-60
2023/01/18 04:13:05;;;;;;;15.48;8.35;;;;;;;-1.39;100.00;99134.81;2616024;36;20885;-59
2023/01/18 04:15:34;;;;;;;19.95;9.57;;;;;;;-1.45;100.00;99133.41;2616062;36;20570;-59
2023/01/18 04:18:03;;;;;;;13.85;8.38;;;;;;;-1.50;100.00;99133.72;2615633;36;20125;-59
2023/01/18 04:20:34;;;;;;;17.15;9.10;;;;;;;-1.51;100.00;99125.91;2615521;36;20038;-60
2023/01/18 04:23:03;;;;;;;12.75;8.05;;;;;;;-1.37;100.00;99133.75;2616269;36;20042;-60
2023/01/18 04:25:31;;;;;;;19.67;8.82;;;;;;;-1.42;100.00;99128.75;2616125;36;20074;-60
2023/01/18 04:27:59;;;;;;;16.02;9.15;;;;;;;-1.43;100.00;99137.66;2616051;36;20045;-59
2023/01/18 04:30:28;;;;;;;15.45;9.05;;;;;;;-1.36;100.00;99139.88;2615376;36;20042;-59
2023/01/18 04:32:57;;;;;;;17.77;9.55;;;;;;;-1.42;100.00;99131.41;2616612;31;20538;-59
2023/01/18 04:35:25;;;;;;;17.23;9.50;;;;;;;-1.57;100.00;99137.72;2615573;31;20034;-60
2023/01/18 04:37:56;;;;;;;14.68;9.45;;;;;;;-1.52;100.00;99140.88;2616128;36;20042;-59
2023/01/18 04:40:25;;;;;;;16.67;9.10;;;;;;;-1.52;100.00;99138.22;2615034;31;20034;-60
2023/01/18 04:42:54;;;;;;;15.95;8.98;;;;;;;-1.53;100.00;99144.47;2616217;31;20046;-59
2023/01/18 04:45:23;;;;;;;13.35;8.68;;;;;;;-1.39;100.00;99148.00;2616154;36;20030;-58
2023/01/18 04:47:51;;;;;;;17.88;8.65;;;;;;;-1.47;100.00;99156.44;2615500;36;20045;-58
2023/01/18 04:50:20;;;;;;;14.35;7.68;;;;;;;-1.54;100.00;99161.25;2614360;36;20022;-58
2023/01/18 04:52:48;;;;;;;17.13;8.68;;;;;;;-1.60;100.00;99148.47;2615708;36;20046;-59
2023/01/18 04:55:19;;;;;;;17.08;9.18;;;;;;;-1.56;100.00;99155.25;2615454;36;20034;-58
2023/01/18 04:57:47;;;;;;;15.73;9.20;;;;;;;-1.44;100.00;99158.88;2615709;36;20034;-58
2023/01/18 05:00:16;;;;;;;14.02;8.15;;;;;;;-1.53;100.00;99160.31;2614349;36;20513;-58
2023/01/18 05:02:45;;;;;;;16.27;8.68;;;;;;;-1.54;100.00;99165.69;2615895;36;20130;-60
2023/01/18 05:05:13;;;;;;;16.88;8.38;;;;;;;-1.45;100.00;99173.81;2614862;36;20045;-59
2023/01/18 05:07:41;;;;;;;18.17;9.25;;;;;;;-1.57;100.00;99168.53;2615973;36;20038;-60
2023/01/18 05:10:12;;;;;;;16.70;9.10;;;;;;;-1.46;100.00;99169.53;2615077;36;20517;-59
2023/01/18 05:12:42;;;;;;;15.35;8.63;;;;;;;-1.45;100.00;99173.81;2615015;36;20050;-59
2023/01/18 05:15:12;;;;;;;17.15;9.27;;;;;;;-1.38;100.00;99168.13;2615504;36;20037;-60
2023/01/18 05:17:40;;;;;;;17.13;9.35;;;;;;;-1.46;100.00;99171.28;2615967;31;20038;-59
2023/01/18 05:20:12;;;;;;;19.30;9.77;;;;;;;-1.34;100.00;99172.28;2615381;36;20026;-59
2023/01/18 05:22:40;;;;;;;20.10;9.98;;;;;;;-1.39;100.00;99177.03;2615780;36;20046;-59
2023/01/18 05:25:09;;;;;;;16.55;9.23;;;;;;;-1.34;100.00;99180.19;2615793;36;20030;-59
2023/01/18 05:27:38;;;;;;;16.30;9.38;;;;;;;-1.38;100.00;99181.34;2616573;36;20038;-59
2023/01/18 05:30:11;;;;;;;19.25;9.60;;;;;;;-1.35;100.00;99182.00;2616648;36;20050;-59
2023/01/18 05:32:39;;;;;;;16.58;9.85;;;;;;;-1.37;100.00;99185.66;2616615;31;20026;-59
2023/01/18 05:35:09;;;;;;;14.57;9.88;;;;;;;-1.38;100.00;99190.13;2616465;36;20592;-59
2023/01/18 05:37:37;;;;;;;;;;;;;;;-1.30;100.00;99189.59;2616485;36;20551;-59
2023/01/18 05:40:06;;;;;;;17.40;10.45;;;;;;;-1.41;100.00;99191.16;2616247;36;20467;-59
2023/01/18 05:42:34;;;;;;;;;;;;;;;-1.28;100.00;99195.59;2616448;36;20053;-59
2023/01/18 05:45:03;;;;;;;20.10;9.88;;;;;;;-1.27;100.00;99197.31;2616247;36;20208;-59
2023/01/18 05:47:33;;;;;;;18.13;10.93;;;;;;;-1.26;100.00;99194.56;2615773;36;20446;-60
2023/01/18 05:50:02;;;;;;;15.45;10.10;;;;;;;-1.24;100.00;99197.97;2614780;36;20030;-60
2023/01/18 05:52:30;;;;;;;20.77;11.00;;;;;;;-1.19;100.00;99192.38;2614749;36;20047;-59
2023/01/18 05:54:59;;;;;;;15.27;9.65;;;;;;;-1.17;100.00;99202.84;2616239;36;20030;-60
2023/01/18 05:57:27;;;;;;;17.23;10.27;;;;;;;-1.17;100.00;99205.47;2613959;36;20034;-59
2023/01/18 05:59:55;;;;;;;19.40;11.38;;;;;;;-1.22;100.00;99211.06;2614267;36;20030;-60
2023/01/18 06:02:23;;;;;;;18.38;10.65;;;;;;;-1.23;100.00;99212.00;2613315;36;20053;-60
2023/01/18 06:04:54;;;;;;;18.35;11.10;;;;;;;-1.29;100.00;99205.34;2614974;36;20426;-60
2023/01/18 06:07:23;;;;;;;20.15;10.70;;;;;;;-1.18;100.00;99211.69;2614601;36;20042;-59
2023/01/18 06:09:51;;;;;;;18.65;9.95;;;;;;;-1.10;100.00;99215.50;2612688;36;20026;-59
2023/01/18 06:12:20;;;;;;;21.23;10.45;;;;;;;-1.05;100.00;99217.84;2614469;36;20031;-60
2023/01/18 06:14:48;;;;;;;13.93;9.38;;;;;;;-0.96;100.00;99216.38;2614015;36;20034;-60
2023/01/18 06:17:17;;;;;;;19.25;10.25;;;;;;;-0.95;100.00;99223.38;2615392;36;20431;-59
2023/01/18 06:19:45;;;;;;;20.75;10.50;;;;;;;-0.96;100.00;99222.50;2614378;36;20065;-59
2023/01/18 06:22:16;;;;;;;15.52;8.88;;;;;;;-1.05;100.00;99225.78;2614528;36;20034;-60
2023/01/18 06:24:45;;;;;;;15.57;9.27;;;;;;;-1.09;100.00;99230.41;2614803;31;20172;-59
2023/01/18 06:27:13;;;;;;;19.02;9.52;;;;;;;-1.06;100.00;99232.84;2613561;36;20054;-59
2023/01/18 06:29:41;;;;;;;15.67;9.77;;;;;;;-0.98;100.00;99239.41;2615435;36;20423;-59
2023/01/18 06:32:10;;;;;;;16.10;9.13;;;;;;;-1.02;100.00;99243.22;2612912;36;20026;-58
2023/01/18 06:34:38;;;;;;;14.40;9.23;;;;;;;-1.03;100.00;99246.78;2614184;31;20442;-59
2023/01/18 06:37:07;;;;;;;18.58;8.98;;;;;;;-0.95;100.00;99236.56;2613393;36;20106;-58
2023/01/18 06:39:38;;;;;;;16.95;9.52;;;;;;;-0.98;100.00;99242.06;2613671;36;20034;-60
2023/01/18 06:42:06;;;;;;;18.95;10.30;;;;;;;-0.94;100.00;99246.19;2614711;36;20099;-59
2023/01/18 06:44:35;;;;;;;15.30;8.50;;;;;;;-0.99;100.00;99254.41;2614467;36;20049;-59
2023/01/18 06:47:03;;;;;;;18.67;9.55;;;;;;;-0.93;100.00;99248.72;2614030;31;20033;-59
2023/01/18 06:49:31;;;;;;;16.20;8.68;;;;;;;-0.88;100.00;99262.47;2614252;36;20562;-59
2023/01/18 06:52:00;;;;;;;18.95;9.70;;;;;;;-0.96;100.00;99262.13;2610087;31;21221;-59
2023/01/18 06:54:29;;;;;;;14.32;8.52;;;;;;;-0.92;100.00;99266.25;2612532;36;20034;-59
2023/01/18 06:57:00;;;;;;;;;;;;;;;-0.80;100.00;99264.59;2616438;36;20145;-59
2023/01/18 06:59:28;;;;;;;17.48;9.55;;;;;;;-0.78;100.00;99273.28;2616292;36;19946;-59
2023/01/18 07:01:57;;;;;;;16.85;8.35;;;;;;;-0.92;100.00;99273.34;2616111;36;20081;-59
2023/01/18 07:04:25;;;;;;;16.70;9.23;;;;;;;-0.83;100.00;99271.88;2613098;36;20072;-58
2023/01/18 07:06:55;;;;;;;15.00;8.60;;;;;;;-0.76;100.00;99278.44;2609668;36;20034;-59
2023/01/18 07:09:23;;;;;;;15.60;8.10;;;;;;;-0.76;100.00;99276.63;2586613;36;20030;-59
2023/01/18 07:11:52;;;;;;;17.08;8.27;;;;;;;-0.80;100.00;99280.44;2606621;36;20042;-60
2023/01/18 07:14:23;;;;;;;17.80;8.13;;;;;;;-0.88;100.00;99282.75;2595078;31;20045;-59
2023/01/18 07:16:51;;;;;;;15.27;7.85;;;;;;;-0.88;100.00;99285.41;2614650;36;20306;-60
2023/01/18 07:19:19;;;;;;;13.65;9.10;;;;;;;-0.86;100.00;99280.84;2614341;36;20035;-59
2023/01/18 07:21:48;;;;;;;15.75;8.10;;;;;;;-0.88;100.00;99293.31;2615452;31;20134;-59
2023/01/18 07:24:17;;;;;;;15.63;8.10;;;;;;;-0.77;100.00;99290.78;2615760;31;20431;-58
2023/01/18 07:26:45;;;;;;;14.63;8.47;;;;;;;-0.79;100.00;99287.41;2615305;36;21083;-59
2023/01/18 07:29:13;;;;;;;15.88;8.40;;;;;;;-0.76;100.00;99287.22;2615559;36;20189;-59
2023/01/18 07:31:46;;;;;;;16.55;7.45;;;;;;;-0.75;100.00;99294.19;2615310;36;20026;-59
2023/01/18 07:34:14;;;;;;;13.20;8.02;;;;;;;-0.73;100.00;99283.53;2614562;31;20046;-59
2023/01/18 07:36:43;;;;;;;15.32;8.25;;;;;;;-0.73;100.00;99289.63;2615192;31;20053;-59
2023/01/18 07:39:12;;;;;;;15.20;8.80;;;;;;;-0.70;100.00;99285.94;2615296;36;20137;-60
2023/01/18 07:41:40;;;;;;;16.52;8.07;;;;;;;-0.66;100.00;99289.22;2616147;36;20442;-59
2023/01/18 07:44:12;;;;;;;11.85;7.80;;;;;;;-0.66;100.00;99291.88;2614546;36;20070;-59
2023/01/18 07:46:41;;;;;;;14.45;8.52;;;;;;;-0.77;100.00;99298.72;2615351;36;20565;-60
2023/01/18 07:49:13;;;;;;;13.77;7.32;;;;;;;-0.79;100.00;99307.72;2613927;36;20042;-59
2023/01/18 07:51:41;;;;;;;15.55;7.88;;;;;;;-0.76;100.00;99303.06;2614331;36;20578;-59
2023/01/18 07:54:09;;;;;;;14.95;7.85;;;;;;;-0.74;100.00;99305.59;2615288;36;20058;-59
2023/01/18 07:56:39;;;;;;;15.07;7.70;;;;;;;-0.81;100.00;99304.31;2615056;31;20562;-59
2023/01/18 07:59:07;;;;;;;15.15;7.93;;;;;;;-0.76;100.00;99310.97;2613894;36;20037;-59
2023/01/18 08:01:36;;;;;;;15.40;8.65;;;;;;;-0.75;100.00;99315.31;2615644;36;20026;-59
2023/01/18 08:04:04;;;;;;;14.70;8.60;;;;;;;-0.60;100.00;99323.19;2613925;31;20904;-60
2023/01/18 08:06:36;;;;;;;14.85;8.30;;;;;;;-0.63;100.00;99323.38;2614501;36;20046;-59
2023/01/18 08:09:04;;;;;;;13.88;7.40;;;;;;;-0.65;100.00;99325.28;2615672;36;20065;-58
2023/01/18 08:11:33;;;;;;;16.08;8.52;;;;;;;-0.64;100.00;99321.69;2614190;36;20038;-59
2023/01/18 08:14:01;;;;;;;14.20;8.13;;;;;;;-0.67;100.00;99332.47;2614203;36;20121;-60
2023/01/18 08:16:29;;;;;;;12.18;7.35;;;;;;;-0.71;100.00;99326.53;2615743;31;20044;-59
2023/01/18 08:18:57;;;;;;;12.90;8.02;;;;;;;-0.68;100.00;99331.59;2614889;36;20026;-59
2023/01/18 08:21:26;;;;;;;14.27;8.13;;;;;;;-0.54;100.00;99338.63;2613888;36;20041;-59
2023/01/18 08:23:57;;;;;;;10.30;7.03;;;;;;;-0.55;100.00;99336.91;2613764;36;20057;-59
2023/01/18 08:26:25;;;;;;;17.13;8.02;;;;;;;-0.57;100.00;99344.13;2615810;36;20041;-59
2023/01/18 08:28:57;;;;;;;17.25;7.90;;;;;;;-0.52;100.00;99346.44;2616711;54;20041;-58
2023/01/18 08:31:25;;;;;;;15.77;7.57;;;;;;;-0.56;100.00;99346.66;2616420;36;20495;-58
2023/01/18 08:33:53;;;;;;;13.70;7.32;;;;;;;-0.46;100.00;99357.44;2616131;31;20034;-59
2023/01/18 08:36:23;;;;;;;13.05;8.40;;;;;;;-0.44;100.00;99349.41;2614868;36;20043;-60
2023/01/18 08:38:54;;;;;;;20.23;8.13;;;;;;;-0.42;100.00;99358.09;2615000;36;20030;-59
2023/01/18 08:41:27;;;;;;;12.85;7.40;;;;;;;-0.46;100.00;99360.09;2614165;36;20657;-60
2023/01/18 08:43:56;;;;;;;13.50;7.18;;;;;;;-0.45;100.00;99359.13;2615220;36;20030;-59
2023/01/18 08:46:25;;;;;;;15.30;8.70;;;;;;;-0.42;100.00;99360.75;2614368;31;20027;-60
2023/01/18 08:48:55;;;;;;;16.52;7.93;;;;;;;-0.36;100.00;99369.09;2614732;31;20529;-59
2023/01/18 08:51:24;;;;;;;15.07;8.13;;;;;;;-0.31;100.00;99365.28;2614626;36;20035;-59
2023/01/18 08:53:55;;;;;;;12.38;7.75;;;;;;;-0.13;100.00;99374.63;2612716;36;20031;-59
2023/01/18 08:56:27;;;;;;;15.02;7.82;;;;;;;-0.21;100.00;99371.66;2614240;36;20658;-59
2023/01/18 08:58:57;;;;;;;14.07;7.95;;;;;;;-0.13;100.00;99382.56;2614913;36;20068;-59
2023/01/18 09:01:25;;;;;;;;;;;;;;;0.01;100.00;99391.34;2614795;36;20154;-59
2023/01/18 09:03:56;;;;;;;14.35;7.75;;;;;;;0.06;100.00;99390.09;2614702;36;19935;-60
2023/01/18 09:06:25;;;;;;;13.60;7.85;;;;;;;0.08;100.00;99388.19;2615377;36;20042;-59
2023/01/18 09:08:53;;;;;;;18.45;7.18;;;;;;;0.17;100.00;99382.25;2615761;36;20130;-59
2023/01/18 09:11:21;;;;;;;13.10;7.70;;;;;;;0.24;100.00;99380.03;2615462;31;20141;-59
2023/01/18 09:13:54;;;;;;;13.45;7.50;;;;;;;0.16;100.00;99390.28;2615789;36;20064;-59
2023/01/18 09:16:23;;;;;;;13.77;7.45;;;;;;;0.25;100.00;99384.38;2616008;36;20042;-59
2023/01/18 09:18:54;;;;;;;12.32;7.60;;;;;;;0.32;100.00;99390.94;2614592;36;20043;-58
2023/01/18 09:21:22;;;;;;;15.15;7.57;;;;;;;0.59;100.00;99389.94;2616120;36;20066;-58
2023/01/18 09:23:51;;;;;;;16.90;7.93;;;;;;;0.68;100.00;99391.94;2617468;36;20442;-59
2023/01/18 09:26:23;;;;;;;15.98;7.78;;;;;;;0.80;100.00;99399.97;2615876;36;20038;-58
2023/01/18 09:28:55;;;;;;;12.57;6.90;;;;;;;0.73;100.00;99399.53;2615457;36;20030;-59
2023/01/18 09:31:26;;;;;;;14.75;7.18;;;;;;;0.77;100.00;99403.69;2614773;36;20026;-58
2023/01/18 09:33:56;;;;;;;14.75;7.10;;;;;;;0.92;100.00;99401.72;2614986;31;20038;-59
2023/01/18 09:36:25;;;;;;;13.00;5.90;;;;;;;0.82;100.00;99408.63;2614690;36;20061;-59
2023/01/18 09:38:54;;;;;;;11.80;6.80;;;;;;;0.92;100.00;99408.84;2615020;31;20108;-58
2023/01/18 09:41:31;;;;;;;14.10;6.80;;;;;;;1.08;100.00;99411.22;2615785;36;20023;-59
2023/01/18 09:44:07;;;;;;;16.05;6.47;;;;;;;1.17;100.00;99415.84;2615751;31;20042;-59
2023/01/18 09:46:39;;;;;;;10.27;6.28;;;;;;;1.28;100.00;99417.72;2614609;36;20125;-58
2023/01/18 09:49:14;;;;;;;11.90;6.25;;;;;;;1.37;100.00;99417.03;2613535;36;20043;-58
2023/01/18 09:51:54;;;;;;;9.57;6.18;;;;;;;1.31;100.00;99421.00;2614250;36;20045;-59
2023/01/18 09:54:34;;;;;;;11.98;6.70;;;;;;;1.31;100.00;99415.69;2615051;36;20041;-59
2023/01/18 09:57:10;;;;;;;12.95;6.07;;;;;;;1.42;100.00;99411.41;2616046;36;20566;-59
2023/01/18 09:59:44;;;;;;;11.13;6.32;;;;;;;1.53;100.00;99420.25;2616078;36;20046;-59
2023/01/18 10:02:26;;;;;;;9.57;6.15;;;;;;;1.63;100.00;99409.78;2616214;36;20039;-58
2023/01/18 10:04:57;;;;;;;13.00;6.10;;;;;;;1.58;100.00;99409.31;2616576;36;20034;-59
2023/01/18 10:07:29;;;;;;;13.45;6.82;;;;;;;1.65;100.00;99407.03;2616093;31;20531;-60
2023/01/18 10:10:02;;;;;;;13.55;7.10;;;;;;;1.69;100.00;99413.78;2614802;36;20034;-60
2023/01/18 10:12:38;;;;;;;13.88;6.28;;;;;;;1.86;100.00;99407.22;2614571;36;20041;-59
2023/01/18 10:15:20;;;;;;;10.27;6.13;;;;;;;1.85;100.00;99405.53;2615355;31;20038;-59
2023/01/18 10:17:55;;;;;;;11.75;6.65;;;;;;;1.87;100.00;99408.91;2615650;36;20046;-59
2023/01/18 10:20:34;;;;;;;9.07;5.30;;;;;;;1.88;100.00;99414.09;2614351;36;20034;-58
2023/01/18 10:23:07;;;;;;;11.38;5.82;;;;;;;2.00;100.00;99417.63;2615780;36;20058;-58
2023/01/18 10:25:42;;;;;;;12.32;5.97;;;;;;;2.08;100.00;99415.25;2615275;36;20034;-59
2023/01/18 10:28:23;;;;;;;11.93;6.35;;;;;;;2.05;100.00;99415.47;2616330;36;20045;-58
2023/01/18 10:31:06;;;;;;;12.90;6.10;;;;;;;2.13;100.00;99416.69;2616499;36;20034;-59
2023/01/18 10:33:41;;;;;;;10.00;5.60;;;;;;;2.28;100.00;99420.81;2614838;31;20569;-58
2023/01/18 10:36:16;;;;;;;10.98;6.57;;;;;;;2.30;100.00;99423.34;2614663;36;20027;-58
2023/01/18 10:38:46;;;;;;;8.70;5.72;;;;;;;2.27;100.00;99411.19;2615391;31;20458;-58
2023/01/18 10:41:21;;;;;;;9.68;6.00;;;;;;;2.42;100.00;99417.09;2615724;31;20530;-60
2023/01/18 10:43:49;;;;;;;10.40;5.80;;;;;;;2.23;100.00;99418.53;2615192;36;20052;-58
2023/01/18 10:46:21;;;;;;;10.05;6.25;;;;;;;2.39;100.00;99428.81;2615061;36;20045;-59
2023/01/18 10:48:51;;;;;;;9.73;6.32;;;;;;;2.44;100.00;99426.66;2614472;36;20023;-59
2023/01/18 10:51:30;;;;;;;9.63;6.60;;;;;;;2.44;100.00;99415.16;2615447;36;20022;-59
2023/01/18 10:53:58;;;;;;;13.45;6.47;;;;;;;2.64;100.00;99413.59;2616546;36;20026;-59
2023/01/18 10:56:29;;;;;;;10.05;6.35;;;;;;;2.59;100.00;99418.41;2615383;31;20428;-60
2023/01/18 10:59:00;;;;;;;8.75;4.88;;;;;;;2.77;100.00;99422.28;2616200;36;20038;-59
2023/01/18 11:01:34;;;;;;;11.50;6.50;;;;;;;2.87;100.00;99416.25;2615996;36;20543;-59
2023/01/18 11:04:06;;;;;;;11.18;6.20;;;;;;;2.94;100.00;99420.94;2615251;36;20056;-60
2023/01/18 11:06:46;;;;;;;14.07;5.78;;;;;;;2.82;100.00;99429.91;2615999;36;20553;-60
2023/01/18 11:09:41;;;;;;;13.07;6.05;;;;;;;3.00;100.00;99427.56;2616708;31;20567;-59
2023/01/18 11:12:36;;;;;;;10.23;6.32;;;;;;;3.07;100.00;99423.47;2615346;31;20547;-59
2023/01/18 11:15:24;;;;;;;10.45;6.10;;;;;;;3.22;100.00;99428.50;2615503;31;20740;-59
2023/01/18 11:18:10;;;;;;;10.40;6.20;;;;;;;3.33;100.00;99423.19;2614781;36;20899;-59
2023/01/18 11:20:49;;;;;;;10.60;5.50;;;;;;;3.31;100.00;99425.09;2613772;36;20049;-59
2023/01/18 11:23:21;;;;;;;12.65;5.80;;;;;;;3.25;100.00;99414.97;2615108;36;20038;-60
2023/01/18 11:28:50;;;;;;;12.40;5.60;;;;;;;3.31;100.00;99418.00;2618044;36;20188;-58
2023/01/18 11:31:21;;;;;;;9.82;5.43;;;;;;;3.40;100.00;99413.72;2619598;36;20030;-58
2023/01/18 11:33:52;;;;;;;9.48;5.20;;;;;;;3.38;100.00;99426.28;2618098;36;20590;-60
2023/01/18 11:36:22;;;;;;;12.40;5.50;;;;;;;3.56;100.00;99428.41;2618680;36;20042;-57
2023/01/18 11:38:50;;;;;;;9.38;4.85;;;;;;;3.61;100.00;99423.56;2619014;36;20089;-57
2023/01/18 11:41:22;;;;;;;7.07;5.07;;;;;;;3.50;100.00;99424.44;2620043;36;20435;-57
2023/01/18 11:44:04;;;;;;;9.48;5.05;;;;;;;3.63;100.00;99425.13;2619388;36;20060;-58
2023/01/18 11:46:40;;;;;;;9.10;4.68;;;;;;;3.68;100.00;99430.06;2619587;36;20033;-58
2023/01/18 11:49:21;;;;;;;9.45;5.53;;;;;;;3.80;100.00;99425.56;2620098;36;20061;-58
2023/01/18 11:51:53;;;;;;;10.68;5.40;;;;;;;3.81;100.00;99428.09;2619915;36;20566;-58
2023/01/18 11:54:29;;;;;;;8.65;4.95;;;;;;;4.00;100.00;99431.84;2619748;36;20045;-58
2023/01/18 11:57:01;;;;;;;10.00;5.13;;;;;;;4.08;100.00;99428.53;2618338;36;20065;-58
2023/01/18 11:59:36;;;;;;;8.13;4.75;;;;;;;4.17;100.00;99431.28;2618987;36;20041;-57
2023/01/18 12:02:35;;;;;;;10.65;5.40;;;;;;;4.15;100.00;99429.72;2618078;36;20582;-58
2023/01/18 12:05:28;;;;;;;9.90;5.38;;;;;;;4.06;100.00;99431.31;2619322;36;20034;-58
2023/01/18 12:08:09;;;;;;;10.20;4.85;;;;;;;4.20;100.00;99428.34;2619278;36;20034;-58
2023/01/18 12:10:49;;;;;;;9.88;5.20;;;;;;;4.12;100.00;99432.63;2620993;31;20042;-58
2023/01/18 12:13:35;;;;;;;9.10;5.03;;;;;;;4.18;100.00;99440.97;2618744;36;20141;-58
2023/01/18 12:16:16;;;;;;;10.18;4.93;;;;;;;4.15;100.00;99430.56;2618246;36;20038;-58
2023/01/18 12:19:14;;;;;;;7.82;4.72;;;;;;;4.19;100.00;99431.97;2619321;36;20146;-59
2023/01/18 12:21:58;;;;;;;9.35;5.95;;;;;;;4.26;100.00;99431.47;2618937;36;20034;-59
2023/01/18 12:24:39;;;;;;;12.25;5.93;;;;;;;4.16;100.00;99426.06;2618719;31;20042;-58
2023/01/18 12:27:18;;;;;;;7.30;4.90;;;;;;;4.22;100.00;99430.88;2619847;36;20434;-59
2023/01/18 12:30:06;;;;;;;8.35;5.53;;;;;;;4.21;100.00;99430.03;2617113;36;20045;-58
2023/01/18 12:33:01;;;;;;;7.88;5.20;;;;;;;4.21;100.00;99434.50;2616586;36;20041;-59
2023/01/18 12:35:49;;;;;;;13.82;5.50;;;;;;;4.27;100.00;99436.66;2615800;36;20081;-59
2023/01/18 12:38:22;;;;;;;8.52;5.30;;;;;;;4.18;100.00;99434.78;2614238;36;20453;-59
2023/01/18 12:41:19;;;;;;;9.88;4.88;;;;;;;4.18;100.00;99430.31;2613117;36;20065;-59
2023/01/18 12:44:05;;;;;;;11.23;5.25;;;;;;;4.30;100.00;99438.22;2609938;36;20022;-59
2023/01/18 12:46:40;;;;;;;12.55;5.30;;;;;;;4.30;100.00;99433.75;2613620;36;20031;-59
2023/01/18 12:49:17;;;;;;;8.93;5.18;;;;;;;4.62;100.00;99437.25;2614385;31;20085;-59
2023/01/18 12:51:49;;;;;;;8.80;4.68;;;;;;;4.49;100.00;99432.16;2614493;36;20463;-59
2023/01/18 12:54:22;;;;;;;8.50;5.10;;;;;;;4.54;100.00;99430.78;2613931;36;20030;-59
2023/01/18 12:56:54;;;;;;;9.15;5.25;;;;;;;4.74;100.00;99436.19;2613166;36;20066;-59
2023/01/18 12:59:27;;;;;;;8.75;4.95;;;;;;;4.81;100.00;99432.00;2615183;36;20045;-59
2023/01/18 13:02:01;;;;;;;9.93;5.10;;;;;;;4.66;100.00;99426.19;2618984;36;20034;-59
2023/01/18 13:04:37;;;;;;;8.95;5.38;;;;;;;4.70;100.00;99437.47;2613955;31;20154;-59
2023/01/18 13:07:13;;;;;;;7.38;4.32;;;;;;;4.78;100.00;99426.94;2613704;31;20522;-59